createdAt,value
2022-09-14T00:00:42.010Z,18.22
2022-09-14T00:06:11.124Z,20.10
2022-09-14T00:11:15.149Z,18.99
2022-09-14T00:16:23.927Z,18.23
2022-09-14T00:21:27.998Z,19.69
2022-09-14T00:26:30.681Z,18.16
2022-09-14T00:31:37.042Z,19.62
2022-09-14T00:36:41.658Z,20.81
2022-09-14T00:41:48.330Z,19.10
2022-09-14T00:46:54.499Z,17.38
2022-09-14T00:52:09.069Z,17.91
2022-09-14T00:57:12.396Z,20.34
2022-09-14T01:02:15.537Z,20.36
2022-09-14T01:07:39.002Z,18.28
2022-09-14T01:13:19.787Z,18.49
2022-09-14T01:18:36.503Z,20.63
2022-09-14T01:24:06.379Z,19.86
2022-09-14T01:29:26.811Z,17.76
2022-09-14T01:34:35.554Z,18.25
2022-09-14T01:39:43.299Z,20.40
2022-09-14T01:44:50.312Z,20.25
2022-09-14T01:49:58.496Z,18.12
2022-09-14T01:55:07.619Z,18.54
2022-09-14T02:00:16.412Z,20.63
2022-09-14T02:05:32.338Z,20.06
2022-09-14T02:10:35.521Z,17.92
2022-09-14T02:15:39.374Z,18.02
2022-09-14T02:21:16.987Z,20.24
2022-09-14T02:26:22.058Z,19.89
2022-09-14T02:32:02.146Z,17.80
2022-09-14T02:37:07.480Z,18.11
2022-09-14T02:42:37.314Z,20.23
2022-09-14T02:48:04.794Z,19.51
2022-09-14T02:53:17.587Z,17.41
2022-09-14T02:58:20.247Z,18.96
2022-09-14T03:03:23.030Z,19.68
2022-09-14T03:08:27.272Z,17.64
2022-09-14T03:13:30.166Z,17.87
2022-09-14T03:18:34.122Z,19.95
2022-09-14T03:23:38.962Z,19.68
2022-09-14T03:28:42.676Z,17.49
2022-09-14T03:33:45.357Z,18.77
2022-09-14T03:38:50.330Z,18.38
2022-09-14T03:43:53.487Z,19.11
2022-09-14T03:48:56.225Z,18.01
2022-09-14T03:53:58.924Z,19.12
2022-09-14T03:59:01.724Z,18.19
2022-09-14T04:04:04.530Z,19.09
2022-09-14T04:09:07.184Z,17.62
2022-09-14T04:14:09.923Z,19.07
2022-09-14T04:19:13.242Z,18.85
2022-09-14T04:24:17.032Z,18.06
2022-09-14T04:29:20.067Z,19.54
2022-09-14T04:34:22.866Z,18.18
2022-09-14T04:39:26.537Z,18.89
2022-09-14T04:44:29.506Z,18.61
2022-09-14T04:49:32.313Z,17.97
2022-09-14T04:54:34.994Z,19.26
2022-09-14T04:59:37.692Z,18.23
2022-09-14T05:04:40.393Z,19.51
2022-09-14T05:09:43.806Z,18.54
2022-09-14T05:14:46.769Z,19.39
2022-09-14T05:19:49.395Z,19.20
2022-09-14T05:24:52.108Z,18.70
2022-09-14T05:29:54.760Z,20.17
2022-09-14T05:34:57.658Z,19.03
2022-09-14T05:40:00.427Z,19.41
2022-09-14T05:45:03.531Z,19.70
2022-09-14T05:50:12.375Z,17.88
2022-09-14T05:55:17.517Z,19.03
2022-09-14T06:00:21.845Z,20.37
2022-09-14T06:05:28.652Z,18.83
2022-09-14T06:10:32.606Z,19.57
2022-09-14T06:15:36.038Z,19.65
2022-09-14T06:20:39.224Z,18.88
2022-09-14T06:25:42.060Z,20.57
2022-09-14T06:30:47.898Z,20.20
2022-09-14T06:36:01.852Z,19.14
2022-09-14T06:41:08.232Z,20.42
2022-09-14T06:46:14.947Z,19.06
2022-09-14T06:51:33.348Z,20.83
2022-09-14T06:56:40.797Z,20.33
2022-09-14T07:01:51.315Z,19.89
2022-09-14T07:06:54.169Z,20.76
2022-09-14T07:11:56.822Z,19.32
2022-09-14T07:16:59.733Z,20.37
2022-09-14T07:22:02.595Z,19.02
2022-09-14T07:27:05.799Z,20.23
2022-09-14T07:32:08.868Z,20.85
2022-09-14T07:37:11.586Z,19.53
2022-09-14T07:42:14.508Z,19.83
2022-09-14T07:47:17.555Z,19.96
2022-09-14T07:52:20.505Z,19.19
2022-09-14T07:57:39.384Z,21.28
2022-09-14T08:02:52.689Z,20.27
2022-09-14T08:07:56.418Z,19.13
2022-09-14T08:12:59.157Z,20.73
2022-09-14T08:18:02.391Z,20.27
2022-09-14T08:23:05.036Z,19.30
2022-09-14T08:28:07.735Z,18.88
2022-09-14T08:33:10.387Z,20.17
2022-09-14T08:38:13.593Z,20.07
2022-09-14T08:43:16.327Z,19.20
2022-09-14T08:48:52.855Z,18.70
2022-09-14T08:53:58.033Z,19.99
2022-09-14T08:59:28.486Z,20.47
2022-09-14T09:05:00.359Z,19.39
2022-09-14T09:10:05.659Z,18.81
2022-09-14T09:15:37.826Z,20.10
2022-09-14T09:20:52.221Z,21.20
2022-09-14T09:26:07.180Z,20.26
2022-09-14T09:31:14.829Z,19.65
2022-09-14T09:36:20.184Z,19.36
2022-09-14T09:41:37.723Z,19.47
2022-09-14T09:46:46.054Z,19.78
2022-09-14T09:51:49.849Z,20.11
2022-09-14T09:57:02.140Z,20.23
2022-09-14T10:02:26.741Z,20.27
2022-09-14T10:07:32.491Z,20.34
2022-09-14T10:12:37.649Z,20.33
2022-09-14T10:17:40.463Z,20.26
2022-09-14T10:22:43.827Z,20.15
2022-09-14T10:27:52.902Z,19.98
2022-09-14T10:33:05.829Z,19.87
2022-09-14T10:38:29.962Z,19.89
2022-09-14T10:44:03.537Z,19.87
2022-09-14T10:49:58.852Z,19.78
2022-09-14T10:56:07.529Z,19.69
2022-09-14T11:01:28.468Z,19.50
2022-09-14T11:06:49.610Z,19.28
2022-09-14T11:12:10.882Z,19.07
2022-09-14T11:17:31.628Z,18.88
2022-09-14T11:23:07.531Z,18.73
2022-09-14T11:28:15.448Z,18.59
2022-09-14T11:33:47.639Z,18.46
2022-09-14T11:38:57.791Z,18.47
2022-09-14T11:44:07.043Z,18.55
2022-09-14T11:49:22.153Z,18.66
2022-09-14T11:54:25.253Z,18.77
2022-09-14T11:59:51.158Z,18.91
2022-09-14T12:05:04.696Z,19.11
2022-09-14T12:10:13.548Z,19.45
2022-09-14T12:15:23.246Z,19.73
2022-09-14T12:20:38.130Z,19.76
2022-09-14T12:26:06.908Z,19.64
2022-09-14T12:31:31.998Z,19.42
2022-09-14T12:36:37.657Z,19.31
2022-09-14T12:41:40.432Z,19.30
2022-09-14T12:46:43.336Z,19.45
2022-09-14T12:51:48.965Z,19.62
2022-09-14T12:57:10.132Z,19.75
2022-09-14T13:02:21.701Z,19.73
2022-09-14T13:07:32.033Z,19.81
2022-09-14T13:12:41.496Z,20.25
2022-09-14T13:18:01.181Z,20.62
2022-09-14T13:23:19.173Z,20.62
2022-09-14T13:28:26.349Z,20.42
2022-09-14T13:33:30.094Z,20.31
2022-09-14T13:38:38.193Z,20.29
2022-09-14T13:43:42.857Z,20.25
2022-09-14T13:48:45.671Z,20.18
2022-09-14T13:53:50.948Z,20.11
2022-09-14T13:59:18.661Z,19.94
2022-09-14T14:04:30.136Z,19.89
2022-09-14T14:09:51.065Z,19.93
2022-09-14T14:14:59.813Z,19.85
2022-09-14T14:20:34.702Z,19.72
2022-09-14T14:25:47.707Z,19.60
2022-09-14T14:30:51.161Z,19.52
2022-09-14T14:35:56.503Z,19.46
2022-09-14T14:40:59.344Z,19.36
2022-09-14T14:46:03.283Z,19.21
2022-09-14T14:51:06.833Z,19.00
2022-09-14T14:56:14.005Z,18.83
2022-09-14T15:01:17.025Z,18.74
2022-09-14T15:06:23.968Z,18.71
2022-09-14T15:11:26.747Z,18.67
2022-09-14T15:16:29.492Z,18.63
2022-09-14T15:21:32.400Z,18.61
2022-09-14T15:26:35.785Z,18.55
2022-09-14T15:31:39.002Z,18.48
2022-09-14T15:36:52.077Z,18.41
2022-09-14T15:41:56.169Z,18.35
2022-09-14T15:46:59.323Z,18.24
2022-09-14T15:52:02.802Z,18.16
2022-09-14T15:57:08.138Z,18.11
2022-09-14T16:02:12.536Z,18.07
2022-09-14T16:07:15.530Z,17.99
2022-09-14T16:12:18.146Z,17.95
2022-09-14T16:17:20.806Z,17.92
2022-09-14T16:22:24.108Z,17.89
2022-09-14T16:27:27.103Z,17.88
2022-09-14T16:32:30.118Z,17.82
2022-09-14T16:37:33.022Z,17.74
2022-09-14T16:42:35.639Z,17.66
2022-09-14T16:47:38.418Z,17.56
2022-09-14T16:52:41.120Z,17.48
2022-09-14T16:57:43.815Z,17.40
2022-09-14T17:02:52.046Z,17.33
2022-09-14T17:07:55.050Z,17.25
2022-09-14T17:12:57.748Z,17.17
2022-09-14T17:18:00.373Z,17.08
2022-09-14T17:23:03.145Z,16.99
2022-09-14T17:28:05.844Z,16.91
2022-09-14T17:33:09.098Z,16.83
2022-09-14T17:38:11.756Z,16.74
2022-09-14T17:43:15.392Z,18.03
2022-09-14T17:48:18.382Z,21.14
2022-09-14T17:53:21.678Z,20.82
2022-09-14T17:58:24.390Z,19.33
2022-09-14T18:03:27.140Z,18.51
2022-09-14T18:08:30.226Z,17.92
2022-09-14T18:13:33.273Z,17.48
2022-09-14T18:18:36.235Z,17.18
2022-09-14T18:23:39.010Z,16.92
2022-09-14T18:28:44.338Z,16.70
2022-09-14T18:33:50.310Z,16.54
2022-09-14T18:38:53.761Z,16.42
2022-09-14T18:43:57.307Z,16.33
2022-09-14T18:49:01.554Z,16.24
2022-09-14T18:54:07.282Z,17.61
2022-09-14T18:59:13.162Z,20.74
2022-09-14T19:04:16.003Z,20.30
2022-09-14T19:09:18.759Z,18.86
2022-09-14T19:14:21.679Z,18.06
2022-09-14T19:19:26.346Z,17.54
2022-09-14T19:24:30.953Z,17.11
2022-09-14T19:29:33.750Z,16.75
2022-09-14T19:34:38.405Z,16.45
2022-09-14T19:39:42.428Z,16.20
2022-09-14T19:44:45.125Z,17.41
2022-09-14T19:49:48.233Z,20.47
2022-09-14T19:54:50.931Z,19.89
2022-09-14T19:59:54.141Z,18.42
2022-09-14T20:04:56.843Z,17.65
2022-09-14T20:09:59.538Z,17.17
2022-09-14T20:15:02.194Z,16.79
2022-09-14T20:20:05.841Z,16.47
2022-09-14T20:25:09.344Z,16.23
2022-09-14T20:30:12.697Z,16.01
2022-09-14T20:35:15.981Z,17.29
2022-09-14T20:40:18.718Z,20.38
2022-09-14T20:45:21.579Z,20.44
2022-09-14T20:50:25.017Z,18.75
2022-09-14T20:55:27.733Z,17.78
2022-09-14T21:00:30.413Z,17.17
2022-09-14T21:05:33.078Z,16.73
2022-09-14T21:10:38.884Z,16.40
2022-09-14T21:15:41.819Z,16.13
2022-09-14T21:20:44.794Z,17.25
2022-09-14T21:25:55.691Z,20.35
2022-09-14T21:31:20.968Z,20.61
2022-09-14T21:36:29.902Z,18.79
2022-09-14T21:41:33.318Z,17.79
2022-09-14T21:46:36.160Z,17.20
2022-09-14T21:51:38.868Z,16.72
2022-09-14T21:56:44.041Z,16.32
2022-09-14T22:01:47.965Z,16.23
2022-09-14T22:06:53.753Z,19.13
2022-09-14T22:11:57.318Z,20.07
2022-09-14T22:16:59.948Z,18.42
2022-09-14T22:22:03.875Z,17.46
2022-09-14T22:27:11.102Z,16.82
2022-09-14T22:32:14.594Z,16.32
2022-09-14T22:37:17.440Z,17.30
2022-09-14T22:42:20.193Z,20.24
2022-09-14T22:47:22.948Z,19.47
2022-09-14T22:52:25.579Z,18.04
2022-09-14T22:57:28.197Z,17.28
2022-09-14T23:02:30.950Z,16.78
2022-09-14T23:07:33.728Z,16.35
2022-09-14T23:12:36.500Z,17.36
2022-09-14T23:17:39.186Z,20.32
2022-09-14T23:22:41.885Z,19.96
2022-09-14T23:27:44.521Z,18.38
2022-09-14T23:32:47.216Z,17.49
2022-09-14T23:37:50.533Z,16.82
2022-09-14T23:42:53.831Z,16.34
2022-09-14T23:47:56.922Z,17.37
2022-09-14T23:52:59.627Z,20.30
2022-09-14T23:58:02.813Z,19.76
